Terminal Aerodrome Forecast
Issued by NWS Portland, OR

Home | Current Version | Previous Version | Text Only | Print | Product List | Glossary On
Versions: 1 2 3 4 5 6 7 8 9 10 11 12 13 14 15 16 17 18 19 20 21 22 23 24 25 26 27 28 29 30 31 32
000
FTUS46 KPQR 210520
TAFSLE
TAF
KSLE 210520Z 2106/2206 17007KT P6SM VCSH FEW070
     FM211200 14006KT P6SM FEW025 BKN060
     FM212000 17010KT P6SM -RA OVC045
     FM220300 11007KT P6SM -RA OVC060=

USA.gov is the U.S. government's official web portal to all federal, state and local government web resources and services.